Time;durP1;ratioP1;P1;durP2;ratioP2;P2;SDS_P1;SDS_P2;PMS_P1;PMS_P2;Temp;Humidity;BMP_temperature;BMP_pressure;BME280_temperature;BME280_humidity;BME280_pressure;Samples;Min_cycle;Max_cycle;Signal;HPM_P1;HPM_P2
2023/09/19 00:00:43;;;;;;;4.13;0.98;;;;;;;23.36;46.09;100762.03;5009557;28;20048;-67
2023/09/19 00:03:09;;;;;;;3.00;0.98;;;;;;;23.16;45.22;100771.28;4992093;28;20125;-67
2023/09/19 00:05:36;;;;;;;3.05;1.40;;;;;;;22.08;46.91;100783.16;5010709;28;20456;-67
2023/09/19 00:08:05;;;;;;;6.72;1.95;;;;;;;22.22;45.29;100779.72;4992907;28;20037;-67
2023/09/19 00:10:34;;;;;;;4.70;0.68;;;;;;;23.79;44.03;100780.53;4992101;28;20092;-70
2023/09/19 00:13:05;;;;;;;3.70;0.60;;;;;;;23.14;43.90;100783.88;4992809;28;20037;-70
2023/09/19 00:15:35;;;;;;;3.33;0.65;;;;;;;22.42;45.92;100786.50;4993140;28;20553;-70
2023/09/19 00:18:00;;;;;;;4.10;1.27;;;;;;;23.40;44.23;100789.31;5009758;28;20108;-69
2023/09/19 00:20:26;;;;;;;2.60;0.57;;;;;;;23.17;45.03;100792.53;5009146;28;20578;-70
2023/09/19 00:22:51;;;;;;;1.23;0.50;;;;;;;23.48;44.08;100793.22;4988260;28;20099;-70
2023/09/19 00:25:18;;;;;;;1.85;0.50;;;;;;;24.01;43.10;100793.31;4973472;28;20465;-70
2023/09/19 00:27:44;;;;;;;6.00;0.80;;;;;;;23.40;44.25;100786.66;4990734;28;20038;-70
2023/09/19 00:30:15;;;;;;;4.35;0.70;;;;;;;22.18;44.63;100792.34;4989826;28;20037;-70
2023/09/19 00:32:41;;;;;;;4.18;1.02;;;;;;;23.12;43.17;100789.31;4990563;28;20030;-69
2023/09/19 00:35:10;;;;;;;2.55;0.70;;;;;;;22.61;44.40;100796.91;4972702;28;20040;-69
2023/09/19 00:37:36;;;;;;;3.10;0.65;;;;;;;22.58;43.78;100787.28;4972352;28;20041;-70
2023/09/19 00:40:05;;;;;;;1.45;0.50;;;;;;;23.50;42.63;100785.13;4972933;28;20030;-70
2023/09/19 00:42:30;;;;;;;2.95;0.68;;;;;;;21.98;44.99;100793.50;4973383;28;20446;-70
2023/09/19 00:44:55;;;;;;;3.38;0.88;;;;;;;22.76;43.79;100795.94;4989477;28;20086;-70
2023/09/19 00:47:21;;;;;;;2.65;1.25;;;;;;;23.24;43.22;100794.81;4973185;28;20533;-70
2023/09/19 00:49:52;;;;;;;1.90;0.60;;;;;;;22.49;44.79;100799.38;4972995;28;20030;-70
2023/09/19 00:52:23;;;;;;;10.07;1.00;;;;;;;22.98;43.33;100800.78;4972275;28;20026;-70
2023/09/19 00:54:48;;;;;;;5.40;0.70;;;;;;;22.24;44.55;100799.09;4990983;28;20026;-70
2023/09/19 00:57:19;;;;;;;2.08;1.02;;;;;;;22.51;43.70;100805.44;4988570;28;20041;-70
2023/09/19 00:59:45;;;;;;;2.97;0.70;;;;;;;21.14;46.00;100808.81;4972146;28;20049;-69
2023/09/19 01:02:13;;;;;;;2.03;0.60;;;;;;;22.02;45.02;100811.00;4988708;28;20308;-69
2023/09/19 01:04:40;;;;;;;4.70;1.52;;;;;;;21.67;46.21;100811.25;4989081;28;20077;-69
2023/09/19 01:07:07;;;;;;;3.70;0.63;;;;;;;21.26;46.65;100815.25;4989409;28;20027;-70
2023/09/19 01:09:34;;;;;;;8.60;0.88;;;;;;;22.16;45.81;100811.06;4972780;28;20034;-70
2023/09/19 01:12:04;;;;;;;4.45;1.27;;;;;;;21.69;45.81;100806.69;4989263;28;20036;-70
2023/09/19 01:14:42;;;;;;;3.38;1.05;;;;;;;21.63;45.92;100812.38;4990487;28;20116;-70
2023/09/19 01:17:22;;;;;;;6.55;1.10;;;;;;;22.74;44.27;100813.84;4988502;28;20046;-69
2023/09/19 01:20:04;;;;;;;4.90;1.10;;;;;;;21.59;46.37;100818.81;4972245;28;20381;-69
2023/09/19 01:22:54;;;;;;;10.80;1.75;;;;;;;21.77;45.65;100806.25;4976228;28;20041;-69
2023/09/19 01:25:39;;;;;;;5.80;0.98;;;;;;;21.45;47.01;100812.41;5009880;28;20022;-69
2023/09/19 01:28:38;;;;;;;6.65;0.80;;;;;;;22.75;45.48;100812.03;4991131;28;20437;-70
2023/09/19 01:31:09;;;;;;;7.95;1.40;;;;;;;21.44;47.02;100809.84;4991809;28;20022;-69
2023/09/19 01:33:59;;;;;;;1.90;0.98;;;;;;;22.05;46.23;100810.84;5008745;28;20036;-69
2023/09/19 01:36:24;;;;;;;2.38;0.80;;;;;;;21.82;47.22;100818.34;4992043;28;20021;-70
2023/09/19 01:38:52;;;;;;;8.65;0.90;;;;;;;22.36;46.50;100820.53;4991870;28;20037;-69
2023/09/19 01:41:25;;;;;;;5.78;0.85;;;;;;;22.81;45.45;100819.66;4991250;28;20393;-69
2023/09/19 01:43:51;;;;;;;3.90;0.75;;;;;;;21.91;47.39;100816.09;5008550;28;20132;-70
2023/09/19 01:46:24;;;;;;;6.85;1.15;;;;;;;22.46;46.26;100820.88;5013380;28;20105;-70
2023/09/19 01:49:20;;;;;;;5.88;1.02;;;;;;;22.04;46.88;100825.09;5011297;28;20034;-70
2023/09/19 01:52:00;;;;;;;5.22;1.35;;;;;;;22.46;46.51;100828.84;4995834;28;20493;-70
2023/09/19 01:54:45;;;;;;;3.92;1.10;;;;;;;22.50;46.76;100827.72;4994901;28;20478;-70
2023/09/19 01:57:29;;;;;;;4.13;1.02;;;;;;;21.79;47.84;100818.53;4995229;28;20417;-70
2023/09/19 02:00:18;;;;;;;4.25;0.75;;;;;;;21.67;47.56;100816.56;5011588;28;20022;-70
2023/09/19 02:02:47;;;;;;;3.53;1.08;;;;;;;21.16;48.89;100828.19;4994577;28;20029;-70
2023/09/19 02:05:22;;;;;;;9.38;2.03;;;;;;;22.71;45.69;100824.69;5012537;28;20034;-70
2023/09/19 02:07:47;;;;;;;14.77;1.45;;;;;;;20.62;49.58;100832.81;5011833;28;20132;-69
2023/09/19 02:10:14;;;;;;;2.60;0.75;;;;;;;21.78;47.59;100822.13;5011783;28;20108;-70
2023/09/19 02:12:39;;;;;;;3.05;0.85;;;;;;;21.53;47.97;100830.66;4995308;28;20025;-70
2023/09/19 02:15:07;;;;;;;6.07;1.38;;;;;;;22.08;47.00;100821.31;5012412;28;20026;-70
2023/09/19 02:17:32;;;;;;;5.35;1.15;;;;;;;21.05;47.92;100835.88;5011903;28;20042;-69
2023/09/19 02:19:58;;;;;;;3.42;0.85;;;;;;;21.67;47.39;100824.53;4994713;28;20014;-70
2023/09/19 02:22:24;;;;;;;4.95;1.00;;;;;;;21.82;46.66;100815.69;4994394;28;20038;-70
2023/09/19 02:24:51;;;;;;;5.20;0.68;;;;;;;21.51;47.35;100825.38;4995526;28;20022;-70
2023/09/19 02:27:17;;;;;;;11.90;0.70;;;;;;;;;;4994820;28;20072;-70
2023/09/19 02:29:43;;;;;;;3.30;0.70;;;;;;;21.64;46.84;100832.72;4994266;28;20034;-70
2023/09/19 02:32:11;;;;;;;4.03;0.60;;;;;;;21.64;46.60;100822.91;4994501;28;20018;-70
2023/09/19 02:34:36;;;;;;;6.72;1.45;;;;;;;22.50;45.44;100827.72;5011271;28;20140;-70
2023/09/19 02:37:04;;;;;;;8.32;0.82;;;;;;;21.89;46.51;100825.97;4993833;28;20173;-70
2023/09/19 02:39:30;;;;;;;5.78;0.85;;;;;;;21.98;45.99;100830.75;5010878;28;20021;-70
2023/09/19 02:41:57;;;;;;;5.13;0.80;;;;;;;22.57;45.46;100836.16;5012308;28;20030;-70
2023/09/19 02:44:23;;;;;;;2.85;0.40;;;;;;;21.76;46.41;100832.00;5011823;28;20108;-70
2023/09/19 02:46:49;;;;;;;3.83;1.33;;;;;;;21.24;48.76;100833.09;4994503;28;20025;-70
2023/09/19 02:49:14;;;;;;;4.85;0.60;;;;;;;21.98;46.82;100836.06;5011831;28;20083;-70
2023/09/19 02:51:40;;;;;;;4.57;1.15;;;;;;;21.52;48.17;100835.09;4993702;28;20097;-70
2023/09/19 02:54:05;;;;;;;4.85;0.70;;;;;;;20.86;49.61;100835.16;5010523;28;20398;-70
2023/09/19 02:56:32;;;;;;;4.18;1.15;;;;;;;21.62;48.12;100814.16;5011724;28;20022;-70
2023/09/19 02:58:57;;;;;;;5.47;0.90;;;;;;;22.21;47.32;100826.75;4993120;28;20445;-70
2023/09/19 03:01:23;;;;;;;6.07;0.55;;;;;;;20.88;50.29;100833.25;4994352;28;20112;-70
2023/09/19 03:03:48;;;;;;;7.32;1.38;;;;;;;21.91;48.80;100829.41;5010719;28;20157;-70
2023/09/19 03:06:14;;;;;;;5.10;1.08;;;;;;;21.67;48.94;100829.88;4993017;28;20029;-70
2023/09/19 03:08:42;;;;;;;5.72;1.15;;;;;;;20.45;52.04;100837.19;5011809;28;20121;-69
2023/09/19 03:11:09;;;;;;;4.50;0.88;;;;;;;21.62;49.63;100827.44;5011536;28;20022;-69
2023/09/19 03:13:37;;;;;;;2.38;0.45;;;;;;;20.71;51.77;100835.00;4993178;28;20018;-69
2023/09/19 03:16:05;;;;;;;8.73;1.20;;;;;;;21.31;50.66;100830.97;4993731;28;20501;-69
2023/09/19 03:18:31;;;;;;;4.15;0.70;;;;;;;21.01;51.30;100844.97;5011939;28;20542;-69
2023/09/19 03:20:59;;;;;;;3.72;1.20;;;;;;;21.10;51.85;100852.44;5010725;28;20075;-69
2023/09/19 03:23:26;;;;;;;6.93;0.80;;;;;;;21.21;51.70;100841.19;4993851;28;20514;-69
2023/09/19 03:25:52;;;;;;;7.82;0.80;;;;;;;20.93;51.78;100844.50;4992964;28;20122;-69
2023/09/19 03:28:18;;;;;;;2.60;0.75;;;;;;;21.41;51.50;100832.16;5010257;28;20017;-69
2023/09/19 03:30:44;;;;;;;1.95;0.90;;;;;;;21.09;51.21;100837.44;5011466;28;20034;-69
2023/09/19 03:33:11;;;;;;;6.47;1.10;;;;;;;21.13;51.34;100844.31;4992870;28;20549;-69
2023/09/19 03:35:38;;;;;;;7.82;1.42;;;;;;;20.47;52.74;100834.44;5011425;28;20478;-69
2023/09/19 03:38:04;;;;;;;1.42;0.60;;;;;;;20.70;53.08;100837.75;5009308;28;20033;-69
2023/09/19 03:40:30;;;;;;;4.05;0.75;;;;;;;21.17;50.67;100834.34;4993079;28;20145;-69
2023/09/19 03:42:55;;;;;;;2.42;0.95;;;;;;;20.14;53.99;100828.16;4993285;28;20509;-69
2023/09/19 03:45:21;;;;;;;5.70;0.85;;;;;;;20.37;54.08;100827.91;4993724;28;20029;-70
2023/09/19 03:47:49;;;;;;;7.70;0.90;;;;;;;20.90;52.43;100828.75;5010627;28;20030;-69
2023/09/19 03:50:17;;;;;;;3.05;0.95;;;;;;;20.89;51.94;100840.31;4992833;28;20022;-69
2023/09/19 03:52:45;;;;;;;10.88;1.85;;;;;;;20.78;51.98;100849.69;4993354;28;20029;-69
2023/09/19 03:55:10;;;;;;;5.68;0.77;;;;;;;20.75;51.91;100841.88;5008364;28;20276;-69
2023/09/19 03:57:36;;;;;;;6.50;1.15;;;;;;;19.56;55.43;100846.88;5011007;28;20036;-69
2023/09/19 04:00:04;;;;;;;8.18;1.65;;;;;;;20.26;53.67;100847.03;4992811;28;20033;-69
2023/09/19 04:02:32;;;;;;;5.88;2.10;;;;;;;21.05;51.91;100857.13;5010119;28;20381;-70
2023/09/19 04:04:58;;;;;;;3.72;0.90;;;;;;;20.32;53.33;100857.34;4992455;28;20037;-69
2023/09/19 04:07:25;;;;;;;10.10;1.40;;;;;;;21.74;50.14;100847.19;4992067;28;20084;-69
2023/09/19 04:09:53;;;;;;;4.78;1.33;;;;;;;20.56;52.64;100859.69;4991901;28;20049;-70
2023/09/19 04:12:19;;;;;;;7.65;1.10;;;;;;;20.21;53.52;100871.16;5010565;28;20456;-69
2023/09/19 04:14:44;;;;;;;5.15;1.00;;;;;;;20.26;54.08;100873.56;5010789;28;20028;-70
2023/09/19 04:17:10;;;;;;;4.60;1.00;;;;;;;20.58;53.91;100879.91;4992152;28;20052;-70
2023/09/19 04:19:36;;;;;;;5.30;1.08;;;;;;;19.73;56.56;100876.09;4992931;28;20025;-70
2023/09/19 04:22:02;;;;;;;6.78;1.33;;;;;;;20.25;56.02;100879.81;4991675;28;20029;-70
2023/09/19 04:24:28;;;;;;;5.22;1.23;;;;;;;19.90;56.89;100882.41;4992880;28;20049;-70
2023/09/19 04:26:53;;;;;;;5.55;1.77;;;;;;;20.91;53.76;100886.22;5008799;28;20022;-69
2023/09/19 04:29:20;;;;;;;3.45;1.05;;;;;;;20.41;55.79;100891.38;4992001;28;20671;-72
2023/09/19 04:31:45;;;;;;;5.68;0.60;;;;;;;19.75;58.35;100887.47;4992810;28;20029;-71
2023/09/19 04:34:16;;;;;;;5.38;1.00;;;;;;;20.87;55.37;100887.31;5008607;28;20025;-69
2023/09/19 04:36:41;;;;;;;6.15;1.10;;;;;;;20.16;57.52;100881.97;5009592;28;20454;-70
2023/09/19 04:39:07;;;;;;;12.60;1.48;;;;;;;21.07;54.07;100881.81;5009554;28;20029;-70
2023/09/19 04:41:33;;;;;;;4.35;1.02;;;;;;;20.01;56.27;100874.78;5010320;28;20021;-69
2023/09/19 04:43:59;;;;;;;3.00;0.85;;;;;;;20.06;58.79;100882.50;4991447;28;20049;-70
2023/09/19 04:46:24;;;;;;;9.77;2.13;;;;;;;20.59;56.94;100891.38;5010315;28;20405;-70
2023/09/19 04:48:51;;;;;;;5.47;1.10;;;;;;;20.51;56.38;100890.00;5009936;28;20505;-70
2023/09/19 04:51:18;;;;;;;6.07;1.08;;;;;;;20.88;55.51;100892.56;4991459;28;20029;-69
2023/09/19 04:53:43;;;;;;;11.02;1.45;;;;;;;20.58;56.20;100890.53;4992608;28;20124;-70
2023/09/19 04:56:09;;;;;;;4.10;1.00;;;;;;;20.86;55.10;100893.59;5008263;28;20106;-70
2023/09/19 04:58:34;;;;;;;6.32;1.25;;;;;;;20.14;58.48;100885.66;5007767;28;20025;-70
2023/09/19 05:01:02;;;;;;;4.78;0.88;;;;;;;20.15;57.52;100884.72;4991899;28;20474;-70
2023/09/19 05:03:28;;;;;;;5.00;0.90;;;;;;;19.84;60.03;100888.88;4992007;28;20022;-69
2023/09/19 05:05:54;;;;;;;5.18;0.95;;;;;;;19.91;58.98;100895.59;4991171;28;20160;-69
2023/09/19 05:08:19;;;;;;;6.80;1.30;;;;;;;20.38;56.13;100896.84;5008390;28;20159;-70
2023/09/19 05:10:45;;;;;;;6.88;1.55;;;;;;;20.58;55.54;100902.94;4992179;28;20034;-69
2023/09/19 05:13:11;;;;;;;3.92;0.88;;;;;;;20.50;55.90;100901.53;5008426;28;20934;-69
2023/09/19 05:15:37;;;;;;;5.63;0.90;;;;;;;21.07;55.22;100903.06;5010104;28;20061;-70
2023/09/19 05:18:03;;;;;;;1.77;0.77;;;;;;;20.60;56.35;100898.41;4992586;28;20103;-70
2023/09/19 05:20:33;;;;;;;2.92;0.90;;;;;;;20.50;56.28;100904.19;4995727;28;20032;-70
2023/09/19 05:23:02;;;;;;;4.55;0.75;;;;;;;20.72;55.28;100896.94;5012144;28;20053;-70
2023/09/19 05:25:32;;;;;;;4.60;0.65;;;;;;;20.48;56.01;100895.47;4995208;28;20490;-70
2023/09/19 05:27:58;;;;;;;7.40;1.15;;;;;;;20.74;56.29;100901.25;4995803;28;20037;-70
2023/09/19 05:30:27;;;;;;;2.38;0.95;;;;;;;20.25;57.02;100883.34;4995942;28;20029;-70
2023/09/19 05:32:53;;;;;;;9.45;2.13;;;;;;;20.31;56.72;100892.78;5012497;28;20096;-70
2023/09/19 05:35:18;;;;;;;2.58;0.82;;;;;;;20.74;55.30;100880.00;4996071;28;20445;-70
2023/09/19 05:37:43;;;;;;;7.05;1.10;;;;;;;19.48;60.57;100890.50;5013710;28;20030;-70
2023/09/19 05:40:11;;;;;;;2.38;0.70;;;;;;;20.43;58.49;100892.16;5012385;28;20026;-70
2023/09/19 05:42:39;;;;;;;13.93;1.65;;;;;;;19.96;59.40;100892.72;4996009;28;20022;-70
2023/09/19 05:45:06;;;;;;;5.43;0.90;;;;;;;20.42;57.41;100895.75;4995402;28;20077;-71
2023/09/19 05:47:32;;;;;;;3.20;1.00;;;;;;;19.66;60.50;100893.22;4994720;28;20413;-71
2023/09/19 05:49:57;;;;;;;6.47;1.08;;;;;;;20.81;56.25;100897.34;4995182;28;20092;-71
2023/09/19 05:52:22;;;;;;;3.13;0.65;;;;;;;20.68;56.99;100901.56;4995820;28;20032;-71
2023/09/19 05:54:49;;;;;;;9.70;0.90;;;;;;;19.91;60.02;100905.38;4994959;28;20053;-70
2023/09/19 05:57:15;;;;;;;1.88;0.68;;;;;;;20.34;59.33;100903.25;5011519;28;20080;-71
2023/09/19 05:59:42;;;;;;;5.25;0.95;;;;;;;21.49;54.91;100915.00;4995522;28;20022;-71
2023/09/19 06:02:09;;;;;;;7.40;1.30;;;;;;;21.33;56.32;100914.13;4994417;28;20046;-71
2023/09/19 06:04:35;;;;;;;1.23;0.77;;;;;;;20.80;57.06;100916.88;5011842;28;20030;-71
2023/09/19 06:07:01;;;;;;;8.25;1.67;;;;;;;20.42;59.58;100911.69;5012470;28;20363;-71
2023/09/19 06:09:27;;;;;;;6.35;1.33;;;;;;;21.28;55.43;100918.81;4994344;28;20426;-70
2023/09/19 06:11:55;;;;;;;9.38;1.13;;;;;;;20.19;59.33;100927.91;4994669;28;20096;-70
2023/09/19 06:14:20;;;;;;;5.28;1.42;;;;;;;21.22;57.16;100921.81;5012785;28;20029;-70
2023/09/19 06:16:47;;;;;;;6.40;1.50;;;;;;;21.18;56.43;100923.78;5010752;28;20496;-70
2023/09/19 06:19:12;;;;;;;11.27;1.05;;;;;;;20.63;59.76;100924.81;5011034;28;20215;-71
2023/09/19 06:21:38;;;;;;;5.10;0.75;;;;;;;20.63;59.28;100930.97;4994316;28;20021;-70
2023/09/19 06:24:04;;;;;;;6.72;1.13;;;;;;;20.83;59.27;100926.50;4994275;28;20050;-69
2023/09/19 06:26:30;;;;;;;5.82;1.10;;;;;;;20.60;60.22;100914.34;4995058;28;20041;-71
2023/09/19 06:28:56;;;;;;;11.00;1.25;;;;;;;19.90;62.67;100916.91;4993561;28;20021;-71
2023/09/19 06:31:22;;;;;;;8.25;1.48;;;;;;;20.61;61.61;100916.06;5011684;28;20034;-71
2023/09/19 06:33:48;;;;;;;5.07;0.82;;;;;;;20.50;61.07;100922.78;5010921;28;20022;-71
2023/09/19 06:36:15;;;;;;;6.50;1.65;;;;;;;20.55;59.27;100919.88;4993611;28;20037;-71
2023/09/19 06:38:40;;;;;;;8.05;1.20;;;;;;;19.83;62.68;100919.81;4994775;28;20144;-70
2023/09/19 06:41:07;;;;;;;5.70;1.00;;;;;;;20.67;60.60;100924.56;4994255;28;20173;-70
2023/09/19 06:43:33;;;;;;;1.88;0.68;;;;;;;20.87;58.54;100925.41;4993853;28;20556;-70
2023/09/19 06:45:59;;;;;;;5.18;1.10;;;;;;;20.05;60.66;100924.09;4993817;28;20028;-70
2023/09/19 06:48:26;;;;;;;2.85;0.50;;;;;;;20.67;59.12;100926.38;4994678;28;20026;-73
2023/09/19 06:50:54;;;;;;;12.68;1.45;;;;;;;20.69;59.17;100916.59;4993327;28;20033;-69
2023/09/19 06:53:20;;;;;;;4.22;1.67;;;;;;;20.70;57.46;100931.56;5012162;28;20111;-69
2023/09/19 06:55:47;;;;;;;4.60;0.70;;;;;;;20.20;60.37;100926.97;5010564;28;20080;-69
2023/09/19 06:58:13;;;;;;;6.85;1.05;;;;;;;21.25;56.55;100932.28;5011084;28;20113;-69
2023/09/19 07:00:38;;;;;;;8.35;1.20;;;;;;;20.79;57.11;100931.09;5012024;28;20153;-69
2023/09/19 07:03:13;;;;;;;8.73;1.50;;;;;;;21.85;55.21;100929.91;4993942;28;20482;-69
2023/09/19 07:05:40;;;;;;;8.93;1.50;;;;;;;20.94;56.74;100934.75;4993304;28;20113;-69
2023/09/19 07:08:12;;;;;;;6.55;1.75;;;;;;;20.83;57.53;100940.63;5010132;28;20056;-69
2023/09/19 07:10:37;;;;;;;7.50;1.10;;;;;;;21.87;55.33;100935.13;4994101;28;20073;-69
2023/09/19 07:13:06;;;;;;;4.68;0.93;;;;;;;22.09;54.81;100929.47;5009145;28;20116;-69
2023/09/19 07:15:38;;;;;;;5.50;1.33;;;;;;;21.50;55.28;100940.66;5010418;28;20025;-69
2023/09/19 07:18:04;;;;;;;7.15;1.38;;;;;;;21.42;57.24;100937.56;5010327;28;20349;-69
2023/09/19 07:20:31;;;;;;;6.85;1.25;;;;;;;21.08;57.45;100944.66;4994042;28;20033;-69
2023/09/19 07:22:59;;;;;;;5.95;1.52;;;;;;;21.69;56.20;100942.34;5009782;28;20515;-69
2023/09/19 07:25:25;;;;;;;2.95;0.88;;;;;;;22.18;54.77;100934.25;4993196;28;20057;-69
2023/09/19 07:27:51;;;;;;;10.65;1.30;;;;;;;21.11;57.99;100947.16;4993588;28;20072;-68
2023/09/19 07:30:17;;;;;;;7.63;1.33;;;;;;;20.90;58.70;100937.66;4993510;28;20482;-69
2023/09/19 07:32:42;;;;;;;6.00;1.30;;;;;;;21.13;58.07;100945.28;5010711;28;20108;-68
2023/09/19 07:35:08;;;;;;;7.43;1.33;;;;;;;21.04;59.01;100934.28;4993115;28;20084;-68
2023/09/19 07:37:34;;;;;;;4.72;1.05;;;;;;;21.72;56.58;100950.16;4993432;28;20112;-69
2023/09/19 07:40:00;;;;;;;2.38;0.80;;;;;;;22.58;54.06;100939.09;4992225;28;20022;-69
2023/09/19 07:42:26;;;;;;;9.10;1.33;;;;;;;21.34;56.89;100943.28;4992288;28;20075;-69
2023/09/19 07:44:53;;;;;;;6.72;1.73;;;;;;;23.33;52.08;100932.91;4993010;28;20029;-69
2023/09/19 07:47:20;;;;;;;5.03;1.20;;;;;;;22.95;51.71;100946.72;5010324;28;20064;-69
2023/09/19 07:49:49;;;;;;;8.57;1.92;;;;;;;22.30;53.30;100947.84;4993290;28;20113;-69
2023/09/19 07:52:15;;;;;;;3.95;0.70;;;;;;;22.84;52.09;100948.22;5010520;28;20076;-68
2023/09/19 07:54:41;;;;;;;6.90;1.52;;;;;;;23.43;52.52;100944.69;4992436;28;20026;-69
2023/09/19 07:57:06;;;;;;;9.88;1.23;;;;;;;22.34;53.56;100944.06;4992976;28;20034;-68
2023/09/19 07:59:32;;;;;;;10.60;1.02;;;;;;;22.97;51.80;100934.16;4993286;28;20034;-69
2023/09/19 08:01:57;;;;;;;5.82;1.33;;;;;;;22.30;52.48;100937.19;5009583;28;20033;-69
2023/09/19 08:04:25;;;;;;;6.63;1.13;;;;;;;22.51;53.45;100946.59;5010875;28;20034;-69
2023/09/19 08:06:51;;;;;;;5.82;0.88;;;;;;;22.39;53.12;100941.97;5010211;28;20030;-69
2023/09/19 08:09:20;;;;;;;7.78;1.38;;;;;;;22.05;53.92;100938.59;4992309;28;20037;-69
2023/09/19 08:11:50;;;;;;;5.25;0.95;;;;;;;22.00;53.87;100937.97;5010493;28;20022;-69
2023/09/19 08:14:16;;;;;;;7.22;0.90;;;;;;;22.53;52.11;100928.72;4992578;28;20034;-69
2023/09/19 08:16:42;;;;;;;8.18;1.00;;;;;;;23.62;50.25;100932.88;5010303;28;20040;-68
2023/09/19 08:19:10;;;;;;;5.45;0.77;;;;;;;22.44;52.69;100929.25;4992306;28;20621;-69
2023/09/19 08:21:36;;;;;;;6.45;1.13;;;;;;;22.23;54.15;100928.69;4992100;28;20100;-69
2023/09/19 08:24:04;;;;;;;6.90;1.55;;;;;;;23.57;50.45;100929.63;5009714;28;20050;-69
2023/09/19 08:26:30;;;;;;;12.23;1.60;;;;;;;23.21;51.69;100923.84;4992704;28;20030;-68
2023/09/19 08:28:56;;;;;;;4.50;1.00;;;;;;;23.73;50.30;100925.03;4991637;28;20030;-69
2023/09/19 08:31:22;;;;;;;8.50;1.45;;;;;;;23.93;50.93;100925.59;4992606;28;20026;-68
2023/09/19 08:33:49;;;;;;;3.47;1.10;;;;;;;22.86;51.55;100919.69;5010126;28;20072;-69
2023/09/19 08:36:14;;;;;;;7.07;0.95;;;;;;;22.11;54.28;100938.22;4991550;28;20029;-69
2023/09/19 08:38:40;;;;;;;5.15;0.90;;;;;;;22.63;53.34;100928.19;5009017;28;20030;-69
2023/09/19 08:41:08;;;;;;;7.35;1.83;;;;;;;22.48;53.90;100928.13;4992124;28;20021;-69
2023/09/19 08:43:34;;;;;;;8.55;1.13;;;;;;;22.36;53.73;100931.50;4991686;28;20474;-69
2023/09/19 08:46:15;;;;;;;6.03;1.20;;;;;;;23.41;51.17;100917.25;5009738;28;20084;-69
2023/09/19 08:49:11;;;;;;;4.40;0.98;;;;;;;22.98;51.42;100927.88;4992466;28;20033;-69
2023/09/19 08:51:45;;;;;;;5.25;1.23;;;;;;;23.05;52.29;100918.53;5007865;28;20042;-69
2023/09/19 08:54:34;;;;;;;4.72;1.58;;;;;;;21.51;55.33;100934.41;5009427;28;20467;-69
2023/09/19 08:57:07;;;;;;;8.93;1.55;;;;;;;23.55;50.57;100911.91;4991250;28;20053;-69
2023/09/19 08:59:35;;;;;;;9.20;1.40;;;;;;;21.60;55.08;100934.88;4992431;28;20556;-69
2023/09/19 09:02:00;;;;;;;9.80;1.10;;;;;;;23.43;52.07;100917.16;5008034;28;20026;-69
2023/09/19 09:04:27;;;;;;;14.63;2.20;;;;;;;23.66;50.51;100923.72;5008030;28;20473;-70
2023/09/19 09:06:55;;;;;;;4.07;1.08;;;;;;;21.97;55.49;100924.84;5009341;28;20092;-69
2023/09/19 09:09:20;;;;;;;3.05;1.00;;;;;;;23.33;51.36;100927.56;4991963;28;20057;-69
2023/09/19 09:11:48;;;;;;;9.65;1.65;;;;;;;22.93;52.25;100922.84;4991506;28;20136;-70
2023/09/19 09:14:13;;;;;;;4.72;1.30;;;;;;;22.81;52.85;100932.41;4991897;28;20080;-70
2023/09/19 09:16:39;;;;;;;8.82;1.40;;;;;;;23.47;51.69;100924.88;4992030;28;20037;-69
2023/09/19 09:19:05;;;;;;;7.90;1.60;;;;;;;22.19;54.47;100922.66;4990869;28;20030;-69
2023/09/19 09:21:35;;;;;;;11.50;1.48;;;;;;;22.82;53.92;100922.59;4992024;28;20488;-70
2023/09/19 09:24:30;;;;;;;7.80;2.40;;;;;;;22.37;52.94;100917.25;4988358;28;20544;-70
2023/09/19 09:27:00;;;;;;;12.13;1.50;;;;;;;23.13;52.23;100926.97;4989823;28;20466;-70
2023/09/19 09:29:43;;;;;;;7.45;1.33;;;;;;;23.76;51.09;100927.50;4972562;28;20019;-70
2023/09/19 09:32:23;;;;;;;8.35;1.35;;;;;;;24.33;49.65;100902.47;4971325;28;20097;-70
2023/09/19 09:34:54;;;;;;;3.15;0.85;;;;;;;23.15;51.20;100929.53;4972608;28;20026;-70
2023/09/19 09:37:20;;;;;;;6.75;1.23;;;;;;;22.52;53.81;100916.34;4972770;28;20469;-69
2023/09/19 09:39:54;;;;;;;6.82;1.30;;;;;;;22.52;55.04;100921.69;4971354;28;20490;-69
2023/09/19 09:42:32;;;;;;;3.33;0.80;;;;;;;23.19;52.19;100926.59;4972472;28;20402;-70
2023/09/19 09:45:28;;;;;;;5.18;1.15;;;;;;;22.82;52.99;100925.25;4971917;28;20483;-70
2023/09/19 09:47:56;;;;;;;6.30;1.00;;;;;;;23.48;51.74;100921.25;4989704;28;20036;-69
2023/09/19 09:50:44;;;;;;;5.53;1.15;;;;;;;23.01;52.88;100917.00;4988440;28;20490;-69
2023/09/19 09:53:27;;;;;;;5.40;0.80;;;;;;;23.47;51.47;100919.53;4971034;28;20030;-69
2023/09/19 09:56:05;;;;;;;8.32;1.25;;;;;;;23.29;52.88;100910.03;4971851;28;20030;-70
2023/09/19 09:58:31;;;;;;;6.40;1.10;;;;;;;24.07;51.04;100901.53;4989924;28;20022;-69
2023/09/19 10:00:57;;;;;;;7.20;1.20;;;;;;;24.54;49.09;100904.66;4971436;28;20022;-69
2023/09/19 10:03:43;;;;;;;8.88;1.15;;;;;;;24.25;49.25;100903.91;4989530;28;20026;-69
2023/09/19 10:06:25;;;;;;;6.03;0.90;;;;;;;23.58;50.27;100894.00;4991872;28;20034;-69
2023/09/19 10:09:16;;;;;;;3.17;0.77;;;;;;;24.00;49.92;100903.75;4975203;28;20041;-70
2023/09/19 10:11:57;;;;;;;6.95;1.30;;;;;;;24.89;48.35;100888.91;4975719;28;20573;-70
2023/09/19 10:14:31;;;;;;;7.97;0.90;;;;;;;24.40;49.09;100894.91;4975392;28;20077;-70
2023/09/19 10:17:03;;;;;;;9.70;1.08;;;;;;;23.39;50.66;100905.81;4992955;28;20108;-69
2023/09/19 10:19:37;;;;;;;4.80;0.80;;;;;;;23.96;49.55;100893.34;4993203;28;20061;-70
2023/09/19 10:22:05;;;;;;;3.95;1.17;;;;;;;23.90;48.96;100885.75;4974171;28;20502;-70
2023/09/19 10:24:36;;;;;;;10.98;1.73;;;;;;;24.10;48.47;100884.41;5012872;28;20018;-69
2023/09/19 10:27:03;;;;;;;2.63;0.82;;;;;;;24.72;48.53;100875.84;5012441;28;20037;-70
2023/09/19 10:29:33;;;;;;;5.85;1.05;;;;;;;24.94;47.34;100869.00;4994072;28;20034;-70
2023/09/19 10:32:01;;;;;;;3.33;0.88;;;;;;;24.71;47.78;100874.13;5012427;28;20022;-69
2023/09/19 10:34:27;;;;;;;8.25;1.25;;;;;;;24.54;47.88;100857.41;5012404;28;20025;-70
2023/09/19 10:36:53;;;;;;;7.53;0.95;;;;;;;23.84;50.63;100873.63;5011412;28;20104;-70
2023/09/19 10:39:19;;;;;;;5.35;1.17;;;;;;;23.59;49.95;100869.03;4994655;28;20021;-70
2023/09/19 10:41:56;;;;;;;5.22;0.73;;;;;;;23.97;49.55;100871.03;4994189;28;20099;-69
2023/09/19 10:44:25;;;;;;;1.55;0.75;;;;;;;24.74;47.51;100863.22;4994753;28;20040;-70
2023/09/19 10:46:55;;;;;;;14.02;1.83;;;;;;;24.52;48.24;100848.66;4994341;28;20022;-69
2023/09/19 10:49:22;;;;;;;12.00;1.10;;;;;;;23.99;48.57;100859.31;5010252;28;20120;-69
2023/09/19 10:51:51;;;;;;;4.35;0.80;;;;;;;24.84;46.91;100869.63;5011927;28;20029;-70
2023/09/19 10:54:21;;;;;;;7.97;0.70;;;;;;;24.00;48.94;100852.16;4994636;28;20092;-69
2023/09/19 10:56:50;;;;;;;3.38;0.80;;;;;;;24.97;47.20;100847.41;4993966;28;20080;-70
2023/09/19 10:59:20;;;;;;;2.97;1.10;;;;;;;25.38;45.79;100846.28;4993874;28;20026;-69
2023/09/19 11:01:56;;;;;;;4.43;1.02;;;;;;;24.88;46.96;100849.75;5012011;28;20041;-71
2023/09/19 11:04:30;;;;;;;8.23;0.90;;;;;;;24.71;47.38;100847.41;5011388;28;20405;-69
2023/09/19 11:07:11;;;;;;;6.15;1.30;;;;;;;24.11;48.31;100849.63;5011686;28;20084;-69
2023/09/19 11:09:54;;;;;;;3.30;0.80;;;;;;;25.14;46.83;100854.22;4994333;28;20041;-69
2023/09/19 11:12:32;;;;;;;1.73;0.38;;;;;;;25.10;45.57;100863.41;4994271;28;20034;-69
2023/09/19 11:14:58;;;;;;;1.55;0.70;;;;;;;24.32;47.66;100858.00;4993402;28;20504;-70
2023/09/19 11:17:35;;;;;;;2.08;0.65;;;;;;;24.21;46.92;100848.06;4993056;28;20029;-70
2023/09/19 11:22:59;;;;;;;5.25;0.70;;;;;;;25.20;46.32;100854.63;5011483;28;20070;-70
2023/09/19 11:25:37;;;;;;;4.07;0.70;;;;;;;24.84;46.87;100850.94;4993066;28;20034;-70
2023/09/19 11:28:05;;;;;;;5.40;0.90;;;;;;;25.61;45.56;100825.00;5011169;28;20254;-70
2023/09/19 11:30:45;;;;;;;3.60;1.15;;;;;;;23.35;49.61;100832.31;5011695;28;20030;-69
2023/09/19 11:33:41;;;;;;;1.75;0.20;;;;;;;24.39;47.56;100851.28;4992578;28;20025;-69
2023/09/19 11:36:18;;;;;;;3.13;0.93;;;;;;;24.44;47.29;100842.09;4993769;28;20601;-69